createdAt,value
2022-10-19T00:01:32.111Z,84.82
2022-10-19T00:03:59.966Z,85.59
2022-10-19T00:06:29.962Z,85.53
2022-10-19T00:09:09.053Z,85.12
2022-10-19T00:11:38.708Z,85.75
2022-10-19T00:14:05.551Z,86.37
2022-10-19T00:16:37.775Z,86.39
2022-10-19T00:19:07.683Z,86.24
2022-10-19T00:21:34.210Z,85.63
2022-10-19T00:24:00.859Z,86.65
2022-10-19T00:26:27.939Z,86.68
2022-10-19T00:28:55.667Z,86.72
2022-10-19T00:31:22.278Z,86.28
2022-10-19T00:33:48.815Z,85.94
2022-10-19T00:36:24.381Z,86.31
2022-10-19T00:38:52.026Z,85.90
2022-10-19T00:41:19.745Z,85.81
2022-10-19T00:44:27.487Z,86.24
2022-10-19T00:46:57.710Z,86.34
2022-10-19T00:49:28.461Z,85.16
2022-10-19T00:52:14.755Z,86.24
2022-10-19T00:54:43.218Z,87.65
2022-10-19T00:57:10.688Z,87.68
2022-10-19T00:59:39.696Z,87.66
2022-10-19T01:02:06.811Z,88.73
2022-10-19T01:04:36.937Z,89.47
2022-10-19T01:07:05.027Z,89.32
2022-10-19T01:09:31.589Z,89.11
2022-10-19T01:12:26.224Z,88.92
2022-10-19T01:15:08.071Z,90.39
2022-10-19T01:18:16.215Z,89.42
2022-10-19T01:20:58.404Z,89.70
2022-10-19T01:23:54.471Z,89.45
2022-10-19T01:26:42.098Z,89.35
2022-10-19T01:29:43.185Z,91.17
2022-10-19T01:32:23.995Z,91.39
2022-10-19T01:34:58.560Z,91.50
2022-10-19T01:37:35.861Z,91.16
2022-10-19T01:40:28.131Z,90.42
2022-10-19T01:43:03.040Z,91.59
2022-10-19T01:45:52.644Z,92.06
2022-10-19T01:48:25.627Z,92.13
2022-10-19T01:51:06.135Z,92.13
2022-10-19T01:53:37.730Z,92.25
2022-10-19T01:56:05.588Z,93.09
2022-10-19T01:58:35.953Z,92.56
2022-10-19T02:01:07.413Z,93.07
2022-10-19T02:03:35.413Z,93.33
2022-10-19T02:06:06.125Z,93.40
2022-10-19T02:08:41.486Z,94.03
2022-10-19T02:11:08.237Z,93.63
2022-10-19T02:13:36.465Z,93.86
2022-10-19T02:16:08.905Z,92.83
2022-10-19T02:18:40.585Z,92.96
2022-10-19T02:21:07.588Z,92.93
2022-10-19T02:23:34.192Z,92.57
2022-10-19T02:26:00.755Z,91.79
2022-10-19T02:28:28.924Z,92.13
2022-10-19T02:30:56.011Z,91.88
2022-10-19T02:33:22.578Z,92.99
2022-10-19T02:35:49.258Z,92.99
2022-10-19T02:38:21.123Z,93.26
2022-10-19T02:41:16.691Z,93.20
2022-10-19T02:43:49.070Z,92.21
2022-10-19T02:46:24.531Z,91.85
2022-10-19T02:48:51.851Z,92.39
2022-10-19T02:51:58.269Z,93.08
2022-10-19T02:54:25.623Z,93.06
2022-10-19T02:56:52.318Z,93.62
2022-10-19T02:59:19.047Z,93.55
2022-10-19T03:01:45.593Z,94.06
2022-10-19T03:04:12.144Z,93.84
2022-10-19T03:06:38.682Z,92.48
2022-10-19T03:09:05.285Z,92.62
2022-10-19T03:11:31.830Z,92.39
2022-10-19T03:13:58.314Z,92.75
2022-10-19T03:16:24.864Z,92.33
2022-10-19T03:18:51.886Z,92.41
2022-10-19T03:21:19.062Z,92.94
2022-10-19T03:23:45.551Z,93.26
2022-10-19T03:26:15.126Z,92.61
2022-10-19T03:28:41.666Z,92.17
2022-10-19T03:31:08.371Z,91.88
2022-10-19T03:33:34.893Z,93.40
2022-10-19T03:36:28.046Z,92.80
2022-10-19T03:39:00.021Z,92.36
2022-10-19T03:41:29.418Z,91.64
2022-10-19T03:43:56.898Z,91.00
2022-10-19T03:46:24.183Z,91.21
2022-10-19T03:48:50.926Z,91.78
2022-10-19T03:51:21.208Z,92.05
2022-10-19T03:53:51.888Z,91.52
2022-10-19T03:56:20.281Z,91.83
2022-10-19T03:58:48.773Z,91.74
2022-10-19T04:01:18.209Z,92.34
2022-10-19T04:03:45.370Z,92.51
2022-10-19T04:06:19.647Z,91.81
2022-10-19T04:08:49.393Z,90.99
2022-10-19T04:11:22.835Z,91.16
2022-10-19T04:13:50.592Z,90.98
2022-10-19T04:16:17.874Z,90.79
2022-10-19T04:18:44.489Z,91.66
2022-10-19T04:21:21.904Z,92.09
2022-10-19T04:23:49.397Z,91.26
2022-10-19T04:26:16.027Z,90.60
2022-10-19T04:28:42.608Z,88.96
2022-10-19T04:31:12.259Z,87.93
2022-10-19T04:33:39.565Z,86.80
2022-10-19T04:36:09.039Z,86.64
2022-10-19T04:38:35.729Z,85.23
2022-10-19T04:41:13.450Z,84.24
2022-10-19T04:43:40.582Z,83.72
2022-10-19T04:46:10.409Z,83.91
2022-10-19T04:48:38.398Z,83.22
2022-10-19T04:51:05.951Z,83.15
2022-10-19T04:53:33.669Z,83.48
2022-10-19T04:56:03.904Z,83.40
2022-10-19T04:58:30.425Z,83.15
2022-10-19T05:00:56.945Z,83.31
2022-10-19T05:03:23.489Z,83.16
2022-10-19T05:05:50.740Z,83.65
2022-10-19T05:08:17.307Z,83.62
2022-10-19T05:10:47.014Z,83.42
2022-10-19T05:13:14.804Z,83.23
2022-10-19T05:15:41.463Z,83.04
2022-10-19T05:18:07.978Z,83.14
2022-10-19T05:20:34.534Z,83.66
2022-10-19T05:23:06.140Z,84.22
2022-10-19T05:25:33.863Z,84.18
2022-10-19T05:28:00.555Z,84.31
2022-10-19T05:30:27.051Z,84.07
2022-10-19T05:32:53.539Z,84.49
2022-10-19T05:35:22.687Z,85.54
2022-10-19T05:37:54.451Z,86.03
2022-10-19T05:40:20.953Z,85.59
2022-10-19T05:42:47.449Z,86.38
2022-10-19T05:45:13.967Z,87.04
2022-10-19T05:47:40.450Z,86.96
2022-10-19T05:50:07.250Z,87.05
2022-10-19T05:52:33.735Z,86.32
2022-10-19T05:55:00.263Z,87.29
2022-10-19T05:57:26.816Z,87.81
2022-10-19T05:59:56.643Z,88.14
2022-10-19T06:02:23.220Z,88.65
2022-10-19T06:04:50.200Z,88.45
2022-10-19T06:07:16.728Z,88.79
2022-10-19T06:09:43.237Z,88.88
2022-10-19T06:12:09.770Z,89.02
2022-10-19T06:14:36.291Z,89.07
2022-10-19T06:17:02.820Z,89.37
2022-10-19T06:19:29.306Z,89.03
2022-10-19T06:21:55.930Z,90.15
2022-10-19T06:24:22.411Z,90.08
2022-10-19T06:26:49.031Z,90.15
2022-10-19T06:29:15.517Z,89.89
2022-10-19T06:31:42.044Z,90.29
2022-10-19T06:34:08.637Z,90.35
2022-10-19T06:36:35.459Z,90.00
2022-10-19T06:39:02.127Z,89.90
2022-10-19T06:41:31.202Z,89.58
2022-10-19T06:43:57.737Z,89.69
2022-10-19T06:46:25.971Z,89.18
2022-10-19T06:48:54.519Z,88.41
2022-10-19T06:51:21.966Z,88.18
2022-10-19T06:53:54.215Z,86.08
2022-10-19T06:56:24.531Z,86.14
2022-10-19T06:58:51.291Z,86.00
2022-10-19T07:01:18.465Z,84.24
2022-10-19T07:03:45.067Z,83.66
2022-10-19T07:06:12.969Z,83.64
2022-10-19T07:08:41.755Z,82.76
2022-10-19T07:11:22.330Z,81.58
2022-10-19T07:13:48.896Z,81.30
2022-10-19T07:16:20.650Z,81.04
2022-10-19T07:18:49.885Z,79.94
2022-10-19T07:21:17.803Z,79.34
2022-10-19T07:23:47.259Z,79.03
2022-10-19T07:26:40.143Z,79.58
2022-10-19T07:29:06.678Z,78.62
2022-10-19T07:31:33.232Z,78.28
2022-10-19T07:34:02.504Z,78.21
2022-10-19T07:36:31.556Z,78.00
2022-10-19T07:38:58.122Z,77.58
2022-10-19T07:41:26.061Z,76.83
2022-10-19T07:43:53.381Z,75.03
2022-10-19T07:46:22.389Z,75.66
2022-10-19T07:48:49.710Z,74.13
2022-10-19T07:51:17.972Z,72.24
2022-10-19T07:53:44.966Z,73.69
2022-10-19T07:56:18.969Z,73.92
2022-10-19T07:58:46.059Z,73.88
2022-10-19T08:01:18.599Z,73.26
2022-10-19T08:06:32.971Z,72.15
2022-10-19T08:08:59.762Z,72.02
2022-10-19T08:11:28.790Z,71.03
2022-10-19T08:13:55.552Z,69.75
2022-10-19T08:16:42.134Z,70.60
2022-10-19T08:19:11.563Z,69.94
2022-10-19T08:21:40.547Z,69.14
2022-10-19T08:24:08.221Z,67.99
2022-10-19T08:26:38.269Z,67.26
2022-10-19T08:29:08.549Z,66.20
2022-10-19T08:31:35.036Z,66.32
2022-10-19T08:34:02.066Z,66.59
2022-10-19T08:36:31.294Z,65.23
2022-10-19T08:38:58.744Z,64.70
2022-10-19T08:41:44.375Z,62.77
2022-10-19T08:44:29.220Z,62.92
2022-10-19T08:47:23.571Z,62.16
2022-10-19T08:49:50.983Z,61.22
2022-10-19T08:52:24.900Z,60.42
2022-10-19T08:54:54.352Z,60.26
2022-10-19T08:57:42.286Z,59.30
2022-10-19T09:03:37.782Z,58.41
2022-10-19T09:06:27.606Z,56.71
2022-10-19T09:08:57.049Z,56.41
2022-10-19T09:11:27.965Z,58.02
2022-10-19T09:14:11.967Z,56.22
2022-10-19T09:16:38.622Z,55.66
2022-10-19T09:19:32.030Z,53.58
2022-10-19T09:22:04.370Z,52.37
2022-10-19T09:25:05.892Z,52.90
2022-10-19T09:27:38.855Z,51.68
2022-10-19T09:30:18.024Z,50.72
2022-10-19T09:32:44.662Z,48.75
2022-10-19T09:35:13.861Z,49.42
2022-10-19T09:37:44.803Z,49.75
2022-10-19T09:40:26.991Z,48.69
2022-10-19T09:43:03.762Z,46.94
2022-10-19T09:45:46.121Z,45.16
2022-10-19T09:48:27.732Z,44.09
2022-10-19T09:51:02.866Z,45.87
2022-10-19T09:53:30.175Z,43.07
2022-10-19T09:56:03.237Z,46.51
2022-10-19T09:58:33.074Z,43.25
2022-10-19T10:01:01.877Z,42.75
2022-10-19T10:03:43.541Z,42.09
2022-10-19T10:06:15.398Z,40.96
2022-10-19T10:08:52.741Z,41.78
2022-10-19T10:11:32.974Z,45.98
2022-10-19T10:14:15.532Z,39.96
2022-10-19T10:16:42.044Z,40.88
2022-10-19T10:19:13.767Z,38.44
2022-10-19T10:21:49.276Z,39.40
2022-10-19T10:24:16.762Z,38.83
2022-10-19T10:26:45.803Z,38.16
2022-10-19T10:29:24.344Z,36.68
2022-10-19T10:31:53.477Z,36.57
2022-10-19T10:35:00.973Z,37.13
2022-10-19T10:37:47.905Z,36.33
2022-10-19T10:40:28.205Z,35.86
2022-10-19T10:42:58.314Z,33.76
2022-10-19T10:45:42.916Z,33.42
2022-10-19T10:48:27.526Z,30.16
2022-10-19T10:50:54.682Z,31.04
2022-10-19T10:53:45.280Z,29.69
2022-10-19T10:56:24.236Z,29.40
2022-10-19T10:58:53.709Z,27.95
2022-10-19T11:01:23.363Z,26.78
2022-10-19T11:03:57.242Z,27.06
2022-10-19T11:06:26.648Z,25.12
2022-10-19T11:09:38.210Z,22.64
2022-10-19T11:12:09.947Z,22.85
2022-10-19T11:14:48.493Z,21.08
2022-10-19T11:17:21.453Z,22.80
2022-10-19T11:19:51.308Z,20.76
2022-10-19T11:22:44.826Z,20.72
2022-10-19T11:25:40.215Z,20.41
2022-10-19T11:28:45.271Z,20.65
2022-10-19T11:31:14.746Z,20.48
2022-10-19T11:34:00.042Z,20.92
2022-10-19T11:36:32.635Z,20.47
2022-10-19T11:39:36.353Z,21.37
2022-10-19T11:42:23.803Z,22.24
2022-10-19T11:44:59.234Z,21.61
2022-10-19T11:47:52.099Z,22.03
2022-10-19T11:50:35.526Z,21.83
2022-10-19T11:53:18.447Z,22.21
2022-10-19T11:56:01.075Z,20.37
2022-10-19T11:58:42.431Z,21.51
2022-10-19T12:01:21.014Z,21.92
2022-10-19T12:04:09.011Z,22.12
2022-10-19T12:07:03.382Z,21.09
2022-10-19T12:09:43.122Z,21.32
2022-10-19T12:12:18.500Z,21.15
2022-10-19T12:14:49.955Z,20.60
2022-10-19T12:17:26.983Z,20.73
2022-10-19T12:19:59.813Z,20.27
2022-10-19T12:22:30.508Z,18.86
2022-10-19T12:25:00.213Z,19.48
2022-10-19T12:27:34.445Z,19.18
2022-10-19T12:30:06.871Z,19.64
2022-10-19T12:32:59.291Z,19.67
2022-10-19T12:35:49.569Z,19.32
2022-10-19T12:38:25.046Z,18.72
2022-10-19T12:41:02.946Z,20.32
2022-10-19T12:43:49.202Z,20.34
2022-10-19T12:46:48.361Z,19.95
2022-10-19T12:49:30.144Z,18.76
2022-10-19T12:51:59.030Z,18.45
2022-10-19T12:54:28.219Z,18.77
2022-10-19T12:56:57.878Z,18.57
2022-10-19T12:59:27.574Z,18.33
2022-10-19T13:01:54.760Z,18.40
2022-10-19T13:04:25.023Z,19.67
2022-10-19T13:07:01.715Z,18.95
2022-10-19T13:09:35.913Z,18.81
2022-10-19T13:12:17.729Z,17.77
2022-10-19T13:15:02.244Z,18.96
2022-10-19T13:17:37.962Z,18.65
2022-10-19T13:20:13.795Z,18.24
2022-10-19T13:22:45.745Z,17.49
2022-10-19T13:25:23.463Z,19.07
2022-10-19T13:27:51.699Z,17.78
2022-10-19T13:30:39.249Z,18.21
2022-10-19T13:33:33.031Z,17.80
2022-10-19T13:35:59.485Z,17.72
2022-10-19T13:38:32.816Z,18.13
2022-10-19T13:41:07.149Z,19.93
2022-10-19T13:43:33.715Z,19.61
2022-10-19T13:46:24.180Z,19.94
2022-10-19T13:48:59.414Z,20.23
2022-10-19T13:51:56.383Z,20.53
2022-10-19T13:54:22.830Z,21.21
2022-10-19T13:57:06.427Z,20.60
2022-10-19T13:59:32.872Z,20.26
2022-10-19T14:02:47.474Z,21.29
2022-10-19T14:05:50.765Z,21.52
2022-10-19T14:09:04.892Z,21.24
2022-10-19T14:11:35.575Z,21.83
2022-10-19T14:14:11.231Z,21.86
2022-10-19T14:16:46.796Z,23.06
2022-10-19T14:19:14.369Z,23.26
2022-10-19T14:21:41.296Z,23.50
2022-10-19T14:24:40.009Z,23.03
2022-10-19T14:27:08.038Z,23.86
2022-10-19T14:29:43.701Z,23.40
2022-10-19T14:32:11.921Z,23.59
2022-10-19T14:34:42.772Z,23.41
2022-10-19T14:37:24.259Z,24.07
2022-10-19T14:40:23.561Z,23.67
2022-10-19T14:42:53.401Z,25.21
2022-10-19T14:45:23.237Z,24.45
2022-10-19T14:47:59.310Z,25.37
2022-10-19T14:50:29.646Z,27.48
2022-10-19T14:53:03.023Z,27.58
2022-10-19T14:55:36.047Z,27.33
2022-10-19T14:58:07.168Z,28.76
2022-10-19T15:00:33.782Z,28.07
2022-10-19T15:03:05.203Z,30.16
2022-10-19T15:05:36.426Z,31.06
2022-10-19T15:08:17.108Z,31.77
2022-10-19T15:10:48.375Z,32.55
2022-10-19T15:13:25.512Z,32.26
2022-10-19T15:15:53.478Z,32.97
2022-10-19T15:18:43.874Z,33.23
2022-10-19T15:21:18.167Z,33.02
2022-10-19T15:23:52.415Z,34.10
2022-10-19T15:26:24.582Z,33.96
2022-10-19T15:28:51.760Z,34.79
2022-10-19T15:31:21.356Z,35.53
2022-10-19T15:33:51.075Z,34.76
2022-10-19T15:36:19.938Z,36.76
2022-10-19T15:38:49.187Z,37.09
2022-10-19T15:41:25.510Z,36.48
2022-10-19T15:43:54.451Z,39.02
2022-10-19T15:46:31.725Z,38.05
2022-10-19T15:49:17.641Z,39.33
2022-10-19T15:51:48.548Z,39.77
2022-10-19T15:54:17.487Z,39.29
2022-10-19T15:56:46.410Z,39.15
2022-10-19T15:59:18.950Z,40.01
2022-10-19T16:01:52.436Z,40.86
2022-10-19T16:04:21.627Z,41.50
2022-10-19T16:06:48.136Z,41.56
2022-10-19T16:09:18.647Z,41.50
2022-10-19T16:11:45.305Z,41.69
2022-10-19T16:14:11.874Z,41.31
2022-10-19T16:16:38.655Z,42.48
2022-10-19T16:19:05.181Z,43.21
2022-10-19T16:21:35.091Z,43.68
2022-10-19T16:24:02.018Z,43.83
2022-10-19T16:26:28.913Z,43.36
2022-10-19T16:28:56.164Z,43.28
2022-10-19T16:31:23.864Z,43.30
2022-10-19T16:33:51.135Z,43.50
2022-10-19T16:36:20.801Z,44.07
2022-10-19T16:38:48.039Z,43.63
2022-10-19T16:41:15.012Z,43.76
2022-10-19T16:43:41.635Z,43.95
2022-10-19T16:46:08.394Z,44.04
2022-10-19T16:48:35.140Z,43.92
2022-10-19T16:51:07.556Z,44.32
2022-10-19T16:53:35.364Z,44.27
2022-10-19T16:56:10.303Z,44.40
2022-10-19T16:58:37.577Z,44.40
2022-10-19T17:01:16.374Z,45.26
2022-10-19T17:03:47.402Z,45.21
2022-10-19T17:06:15.490Z,45.64
2022-10-19T17:09:14.750Z,45.89
2022-10-19T17:11:31.926Z,45.54
2022-10-19T17:14:01.468Z,45.69
2022-10-19T17:16:30.895Z,46.01
2022-10-19T17:18:59.556Z,45.84
2022-10-19T17:21:28.853Z,46.66
2022-10-19T17:23:57.915Z,46.51
2022-10-19T17:26:30.346Z,46.25
2022-10-19T17:28:59.440Z,46.22
2022-10-19T17:31:26.796Z,46.34
2022-10-19T17:33:53.753Z,46.49
2022-10-19T17:36:23.097Z,46.65
2022-10-19T17:38:49.646Z,46.64
2022-10-19T17:41:18.221Z,48.19
2022-10-19T17:43:46.798Z,47.25
2022-10-19T17:46:16.033Z,47.56
2022-10-19T17:48:43.806Z,47.87
2022-10-19T17:51:19.222Z,47.77
2022-10-19T17:53:48.169Z,48.21
2022-10-19T17:56:18.124Z,49.43
2022-10-19T17:58:45.071Z,48.63
2022-10-19T18:01:12.504Z,48.53
2022-10-19T18:03:40.152Z,49.10
2022-10-19T18:06:10.525Z,48.69
2022-10-19T18:08:40.538Z,49.04
2022-10-19T18:11:11.058Z,49.80
2022-10-19T18:13:38.569Z,50.30
2022-10-19T18:16:10.950Z,50.54
2022-10-19T18:18:39.542Z,50.04
2022-10-19T18:21:11.776Z,50.43
2022-10-19T18:23:38.818Z,50.64
2022-10-19T18:26:08.919Z,51.23
2022-10-19T18:28:35.784Z,50.60
2022-10-19T18:31:11.446Z,50.94
2022-10-19T18:33:38.910Z,51.09
2022-10-19T18:36:06.930Z,51.11
2022-10-19T18:38:33.561Z,51.40
2022-10-19T18:43:54.347Z,51.47
2022-10-19T18:46:22.550Z,52.47
2022-10-19T18:48:49.907Z,52.33
2022-10-19T18:51:17.974Z,52.41
2022-10-19T18:53:45.291Z,52.67
2022-10-19T18:56:14.150Z,52.65
2022-10-19T18:58:40.718Z,52.33
2022-10-19T19:01:11.114Z,53.96
2022-10-19T19:03:39.833Z,53.69
2022-10-19T19:06:12.776Z,53.87
2022-10-19T19:08:39.712Z,55.20
2022-10-19T19:11:15.490Z,53.87
2022-10-19T19:13:46.544Z,54.16
2022-10-19T19:16:13.112Z,53.89
2022-10-19T19:18:39.679Z,53.68
2022-10-19T19:21:17.886Z,54.45
2022-10-19T19:23:44.597Z,54.21
2022-10-19T19:26:12.995Z,54.22
2022-10-19T19:28:41.790Z,54.34
2022-10-19T19:31:10.343Z,54.74
2022-10-19T19:33:37.384Z,54.41
2022-10-19T19:36:05.818Z,54.12
2022-10-19T19:38:33.011Z,53.60
2022-10-19T19:40:59.643Z,53.77
2022-10-19T19:43:26.131Z,54.51
2022-10-19T19:45:57.332Z,53.86
2022-10-19T19:48:23.878Z,56.04
2022-10-19T19:50:52.774Z,56.28
2022-10-19T19:53:19.604Z,54.84
2022-10-19T19:55:47.635Z,54.43
2022-10-19T19:58:15.555Z,55.08
2022-10-19T20:00:43.130Z,54.07
2022-10-19T20:03:12.279Z,53.57
2022-10-19T20:05:40.227Z,54.07
2022-10-19T20:08:07.637Z,55.51
2022-10-19T20:10:38.774Z,54.33
2022-10-19T20:13:05.494Z,54.67
2022-10-19T20:15:32.179Z,55.69
2022-10-19T20:17:58.733Z,54.54
2022-10-19T20:20:25.251Z,54.75
2022-10-19T20:22:51.782Z,54.69
2022-10-19T20:25:18.451Z,55.36
2022-10-19T20:27:44.959Z,57.18
2022-10-19T20:30:11.941Z,57.28
2022-10-19T20:32:38.809Z,56.43
2022-10-19T20:35:06.114Z,57.84
2022-10-19T20:37:32.647Z,58.12
2022-10-19T20:40:00.669Z,58.59
2022-10-19T20:42:27.941Z,58.58
2022-10-19T20:44:55.479Z,58.57
2022-10-19T20:47:22.027Z,60.24
2022-10-19T20:49:48.656Z,59.08
2022-10-19T20:52:15.203Z,60.67
2022-10-19T20:54:41.654Z,59.08
2022-10-19T20:57:08.151Z,61.30
2022-10-19T20:59:34.642Z,61.03
2022-10-19T21:02:01.196Z,61.99
2022-10-19T21:04:27.848Z,63.17
2022-10-19T21:06:54.363Z,63.72
2022-10-19T21:09:23.350Z,62.03
2022-10-19T21:11:51.609Z,62.52
2022-10-19T21:14:25.252Z,63.56
2022-10-19T21:16:56.594Z,64.42
2022-10-19T21:19:25.447Z,61.94
2022-10-19T21:21:57.775Z,63.66
2022-10-19T21:24:27.060Z,64.11
2022-10-19T21:26:53.961Z,66.14
2022-10-19T21:29:20.711Z,66.91
2022-10-19T21:31:49.510Z,65.95
2022-10-19T21:34:18.702Z,67.87
2022-10-19T21:36:45.241Z,67.54
2022-10-19T21:39:13.043Z,68.25
2022-10-19T21:41:39.642Z,69.07
2022-10-19T21:44:07.395Z,67.93
2022-10-19T21:46:33.881Z,68.36
2022-10-19T21:49:00.446Z,69.06
2022-10-19T21:51:37.442Z,69.25
2022-10-19T21:54:06.739Z,69.34
2022-10-19T21:56:34.187Z,70.59
2022-10-19T21:59:00.686Z,70.42
2022-10-19T22:01:29.586Z,70.03
2022-10-19T22:04:01.639Z,69.63
2022-10-19T22:06:30.369Z,68.49
2022-10-19T22:08:57.815Z,69.45
2022-10-19T22:11:25.087Z,69.49
2022-10-19T22:14:00.351Z,69.09
2022-10-19T22:16:28.097Z,69.94
2022-10-19T22:18:55.363Z,69.39
2022-10-19T22:21:29.030Z,71.27
2022-10-19T22:23:58.447Z,70.32
2022-10-19T22:26:30.498Z,70.77
2022-10-19T22:28:58.710Z,69.04
2022-10-19T22:31:27.540Z,69.82
2022-10-19T22:33:54.296Z,70.53
2022-10-19T22:36:20.976Z,70.86
2022-10-19T22:38:47.721Z,71.22
2022-10-19T22:42:10.530Z,71.64
2022-10-19T22:44:37.113Z,71.58
2022-10-19T22:47:03.755Z,71.68
2022-10-19T22:49:30.329Z,71.12
2022-10-19T22:51:56.834Z,71.27
2022-10-19T22:54:23.400Z,70.78
2022-10-19T22:56:51.022Z,70.53
2022-10-19T22:59:17.578Z,71.43
2022-10-19T23:01:44.121Z,71.97
2022-10-19T23:04:10.654Z,72.03
2022-10-19T23:06:37.198Z,72.44
2022-10-19T23:09:04.326Z,72.58
2022-10-19T23:11:31.083Z,72.22
2022-10-19T23:13:57.795Z,71.50
2022-10-19T23:16:24.399Z,72.82
2022-10-19T23:18:50.975Z,73.27
2022-10-19T23:21:17.707Z,73.61
2022-10-19T23:23:44.486Z,73.90
2022-10-19T23:26:10.972Z,73.74
2022-10-19T23:28:39.308Z,73.15
2022-10-19T23:31:17.606Z,74.05
2022-10-19T23:33:44.696Z,74.42
2022-10-19T23:36:23.555Z,74.71
2022-10-19T23:38:51.561Z,74.93
2022-10-19T23:41:19.057Z,74.71
2022-10-19T23:43:46.264Z,74.61
2022-10-19T23:46:13.089Z,76.11
2022-10-19T23:48:40.514Z,76.41
2022-10-19T23:51:10.131Z,76.56
2022-10-19T23:53:40.932Z,75.95
2022-10-19T23:56:14.151Z,76.29
2022-10-19T23:58:40.967Z,76.44
